Pagrindinis puslapis
METAR-TAF:

METAR-TAF

Oro uostai :

Qurayyat, Saudo Arabija

platuma: 31-24N, ilguma: 037-16E, Aukštis: 509 m

Dabartinis oras

Ataskaita buvo paskelbta 48 minutes, ne 03:00 UTC
Vėjas 6 kt iš Vakarų
Temperatūra 14°C
Drėgmė 51%
Slėgis 1017 hPa
Matomumas 10 km arba daugiau
nėra debesų žemiau 1500 m ir nėra kamuolinių lietaus debesų

METAR: OEGT 300300Z 28006KT CAVOK 14/04 Q1017 NOSIG

Laikas: 06:48 (03:48 UTC)

Prognozė

Ataskaita buvo paskelbta 4 valandos ir 48 minutes, ne 23:00 UTC
Prognozė galioja nuo 30 metu 00 UTC su 31 metu 06 UTC
Vėjas 3 kt nuo kintamojo kryptimis
Matomumas 10 km arba daugiau
Mažai debesys ne aukštis 4000 ft
Išsisklaidę debesys ne aukštis 10000 ft
Tapsmas
nuo 30 metu 08 UTC su 30 metu 10 UTC
Vėjas 12 kt iš Rytų/Pietryčių

TAF: OEGT 292300Z 3000/3106 VRB03KT 9999 FEW040 SCT100 BECMG 3008/3010 12012KT

Orai ataskaitas ir orų prognozės (METAR, TAF).

turimą stotys yra geltonos ir raudonos taškus žemėlapyje.

Perkelti pele per norėdami pamatyti stoties vardą.

Tada spustelėkite, norėdami matyti oro stebėjimo ir prognozės.

Norėdami pakeisti žemėlapį: spustelėkite ant žalios mygtukų su juodo kryžiaus žemyn,; žalią mygtuką su brūkšneliu, jei norite nutolinti; arba žalių rodyklių gretimoms žemėlapius.


METAR-TAF: